Date,TemperatureHighF,TemperatureAvgF,TemperatureLowF,DewpointHighF,DewpointAvgF,DewpointLowF,HumidityHigh,HumidityAvg,HumidityLow,PressureMaxIn,PressureMinIn,WindSpeedMaxMPH,WindSpeedAvgMPH,GustSpeedMaxMPH,PrecipitationSumIn
2013-5-1,76.8,66.5,54.3,63.3,58.7,53.7,98,78,56,30.00,29.88,5,1,0,0.00
2013-5-2,75.6,66.1,53.2,64.3,58.2,51.9,98,77,61,30.01,29.91,6,1,0,0.00
2013-5-3,73.0,63.5,56.1,62.3,57.3,54.8,98,81,54,29.92,29.74,7,1,0,0.00
2013-5-4,64.9,57.5,55.8,64.3,56.0,53.8,98,95,73,29.76,29.69,3,0,0,4.03
2013-5-5,64.8,54.4,49.3,56.5,52.1,48.8,98,92,66,29.71,29.58,9,1,0,2.32
2013-5-6,58.3,51.9,45.7,53.4,50.1,45.2,98,94,79,29.74,29.61,5,1,0,0.48
2013-5-7,74.5,59.8,45.0,58.3,51.8,44.5,98,78,45,29.81,29.71,4,1,0,0.00
2013-5-8,54.9,53.9,53.4,52.8,52.1,51.4,98,94,92,29.80,29.79,0,0,0,0.00
2013-5-9,82.4,75.6,63.1,63.9,59.9,57.5,88,60,45,29.92,29.82,6,1,0,0.00
2013-5-10,74.5,66.5,56.3,64.2,59.8,55.7,98,80,63,29.88,29.74,4,1,0,0.00
2013-5-11,76.5,68.1,57.0,66.7,60.9,50.6,95,79,57,29.82,29.70,5,1,0,0.02
2013-5-12,70.7,58.7,46.6,52.0,40.6,33.1,91,55,27,29.98,29.82,8,2,0,0.00
2013-5-13,72.9,55.9,38.5,45.3,38.1,32.3,91,57,23,30.10,29.95,5,1,0,0.00
2013-5-14,84.2,63.7,42.1,59.4,50.1,39.7,98,65,38,30.08,29.87,7,2,0,0.00
2013-5-15,89.6,72.4,58.1,64.3,58.2,54.0,92,64,35,29.98,29.82,5,1,0,0.00
2013-5-16,84.9,71.1,58.8,67.0,60.8,55.6,98,73,48,29.89,29.78,4,1,0,0.00
2013-5-17,79.9,69.6,60.4,67.8,63.7,58.4,98,82,61,29.91,29.82,3,0,0,0.18
2013-5-18,77.4,70.0,64.9,72.5,67.9,64.3,98,93,82,29.88,29.80,3,1,0,0.96
2013-5-19,73.2,67.4,59.9,72.4,66.6,59.3,98,98,92,29.93,29.77,6,1,0,2.38
2013-5-20,85.8,67.5,59.0,71.2,63.9,58.4,98,90,58,29.94,29.81,2,0,0,0.00
2013-5-21,88.7,73.5,62.6,74.7,67.5,62.0,98,83,57,29.86,29.72,5,1,0,0.00
2013-5-22,86.4,71.4,64.6,73.1,67.6,64.0,98,89,60,29.78,29.66,4,1,0,1.94
2013-5-23,83.5,71.5,61.5,71.0,62.8,56.7,98,77,43,29.84,29.72,6,1,0,0.00
2013-5-24,75.4,67.5,54.5,55.0,50.4,44.9,78,55,39,30.08,29.99,8,2,0,0.00
2013-5-25,76.1,58.2,47.7,55.0,49.5,45.9,98,76,39,30.17,30.08,4,1,0,0.00
2013-5-26,82.2,74.0,61.2,62.1,57.7,53.3,88,59,39,30.06,29.96,2,0,0,0.00
2013-5-27,86.5,70.7,54.9,65.4,60.8,54.3,98,74,46,30.05,29.90,4,1,0,0.00
2013-5-28,87.4,74.3,61.7,68.1,63.8,61.1,98,73,44,30.00,29.90,4,1,0,0.00
2013-5-29,87.3,74.6,62.2,70.9,64.2,59.5,98,72,46,30.04,29.92,5,1,0,0.00
2013-5-30,84.2,74.4,64.6,70.7,66.6,62.8,98,78,58,30.04,29.90,4,1,0,0.00
2013-5-31,85.5,75.7,65.7,70.0,67.4,64.3,98,77,58,29.99,29.84,4,1,0,0.00